Wetterdaten: Woche 31.01.05 - 06.02.05 (KW5)
Datum Zeit Temperatur Luftfeuchte Luftdruck Niederschlag Wind Richtung Sonne Solar Taupunkt Windchill
31.01.2005 00:00 -5.1 C 59 % 1032.9 hPa 0.0 l/m 0.3 km/h (0 Bft) O-SO 0.00 h 0 W/m -11.9 C -5.2 C
31.01.2005 01:00 -5.2 C 60 % 1032.9 hPa 0.0 l/m 0.0 km/h (0 Bft) N 0.00 h 0 W/m -11.8 C -5.2 C
31.01.2005 02:00 -5.2 C 61 % 1032.9 hPa 0.0 l/m 0.3 km/h (0 Bft) S 0.00 h 0 W/m -11.5 C -5.2 C
31.01.2005 03:00 -5.3 C 64 % 1032.9 hPa 0.0 l/m 0.1 km/h (0 Bft) N 0.00 h 0 W/m -10.9 C -5.3 C
31.01.2005 04:00 -5.4 C 65 % 1032.9 hPa 0.0 l/m 0.2 km/h (0 Bft) N 0.00 h 0 W/m -10.9 C -5.4 C
31.01.2005 05:00 -5.5 C 67 % 1032.1 hPa 0.0 l/m 0.4 km/h (0 Bft) SW 0.00 h 0 W/m -10.6 C -5.6 C
31.01.2005 06:00 -5.4 C 72 % 1031.9 hPa 0.0 l/m 0.5 km/h (0 Bft) SO 0.00 h 0 W/m -9.6 C -5.4 C
31.01.2005 07:00 -5.5 C 69 % 1031.9 hPa 0.0 l/m 0.3 km/h (0 Bft) SO 0.00 h 0 W/m -10.3 C -5.5 C
31.01.2005 08:00 -5.4 C 69 % 1032.9 hPa 0.0 l/m 0.0 km/h (0 Bft) N 0.00 h 15 W/m -10.2 C -5.4 C
31.01.2005 09:00 -4.8 C 67 % 1032.8 hPa 0.0 l/m 0.4 km/h (0 Bft) W 0.00 h 47 W/m -9.9 C -4.8 C
31.01.2005 10:00 -4.0 C 65 % 1032.7 hPa 0.0 l/m 3.9 km/h (1 Bft) SO 0.00 h 96 W/m -9.7 C -5.4 C
31.01.2005 11:00 -2.9 C 62 % 1032.6 hPa 0.0 l/m 0.8 km/h (0 Bft) W-NW 0.00 h 143 W/m -9.2 C -3.0 C
31.01.2005 12:00 -1.7 C 59 % 1031.3 hPa 0.0 l/m 2.6 km/h (1 Bft) SO 0.00 h 182 W/m -8.6 C -2.3 C
31.01.2005 13:00 -1.2 C 58 % 1030.5 hPa 0.0 l/m 0.8 km/h (0 Bft) SO 0.07 h 217 W/m -8.5 C -1.3 C
31.01.2005 14:00 -0.2 C 56 % 1029.4 hPa 0.0 l/m 0.4 km/h (0 Bft) W-SW 0.20 h 196 W/m -7.8 C -0.2 C
31.01.2005 15:00 -0.1 C 58 % 1028.9 hPa 0.0 l/m 0.9 km/h (0 Bft) W 0.00 h 112 W/m -7.2 C -0.3 C
31.01.2005 16:00 0.2 C 59 % 1028.6 hPa 0.0 l/m 1.0 km/h (0 Bft) W 0.43 h 72 W/m -6.7 C 0.0 C
31.01.2005 17:00 -0.2 C 63 % 1028.5 hPa 0.0 l/m 6.5 km/h (2 Bft) SO 0.02 h 14 W/m -6.5 C -2.2 C
31.01.2005 18:00 -0.2 C 64 % 1028.6 hPa 0.0 l/m 10.3 km/h (2 Bft) SO 0.00 h 0 W/m -6.2 C -3.3 C
31.01.2005 19:00 -0.2 C 64 % 1028.0 hPa 0.0 l/m 5.3 km/h (1 Bft) W 0.00 h 0 W/m -6.1 C -1.7 C
31.01.2005 20:00 0.4 C 69 % 1027.9 hPa 0.0 l/m 7.6 km/h (2 Bft) W-NW 0.00 h 0 W/m -4.6 C -1.8 C
31.01.2005 21:00 0.7 C 83 % 1027.0 hPa 0.0 l/m 9.3 km/h (2 Bft) W 0.00 h 0 W/m -1.9 C -1.8 C
31.01.2005 22:00 0.4 C 89 % 1026.3 hPa 0.0 l/m 2.6 km/h (1 Bft) SW 0.00 h 0 W/m -1.1 C -0.2 C
31.01.2005 23:00 0.1 C 93 % 1025.9 hPa 0.3 l/m 4.0 km/h (1 Bft) S-SO 0.00 h 0 W/m -0.9 C -0.9 C
01.02.2005 00:00 0.3 C 97 % 1024.9 hPa 0.6 l/m 2.9 km/h (1 Bft) W-SW 0.00 h 0 W/m -0.1 C -0.3 C
01.02.2005 01:00 0.1 C 97 % 1024.7 hPa 0.9 l/m 4.4 km/h (1 Bft) S-SO 0.00 h 0 W/m -0.4 C -1.1 C
01.02.2005 02:00 -0.0 C 98 % 1023.8 hPa 0.6 l/m 0.8 km/h (0 Bft) W 0.00 h 0 W/m -0.3 C -0.1 C
01.02.2005 03:00 0.0 C 99 % 1022.9 hPa 0.6 l/m 0.9 km/h (0 Bft) SO 0.00 h 0 W/m -0.1 C 0.0 C
01.02.2005 04:00 0.2 C 100 % 1022.1 hPa 0.6 l/m 3.5 km/h (1 Bft) SO 0.00 h 0 W/m 0.1 C -0.8 C
01.02.2005 05:00 0.4 C 100 % 1021.7 hPa 0.3 l/m 0.8 km/h (0 Bft) SO 0.00 h 0 W/m 0.4 C 0.2 C
01.02.2005 06:00 0.5 C 100 % 1021.6 hPa 0.0 l/m 0.2 km/h (0 Bft) SW 0.00 h 0 W/m 0.5 C 0.5 C
01.02.2005 07:00 0.9 C 100 % 1021.6 hPa 0.0 l/m 3.5 km/h (1 Bft) NW 0.00 h 5 W/m 0.9 C 0.1 C
01.02.2005 08:00 1.2 C 100 % 1022.6 hPa 0.0 l/m 1.8 km/h (1 Bft) NW 0.03 h 24 W/m 1.2 C 0.7 C
01.02.2005 09:00 1.4 C 95 % 1023.3 hPa 0.0 l/m 3.8 km/h (1 Bft) O-SO 0.00 h 65 W/m 0.7 C 0.5 C
01.02.2005 10:00 1.9 C 94 % 1023.8 hPa 0.0 l/m 3.7 km/h (1 Bft) O-SO 0.53 h 284 W/m 1.1 C 0.9 C
01.02.2005 11:00 3.0 C 82 % 1024.4 hPa 0.0 l/m 6.6 km/h (2 Bft) W-NW 0.70 h 264 W/m 0.2 C 1.4 C
01.02.2005 12:00 3.6 C 70 % 1024.3 hPa 0.0 l/m 6.3 km/h (2 Bft) W-NW 0.77 h 340 W/m -1.3 C 2.1 C
01.02.2005 13:00 2.5 C 74 % 1024.5 hPa 0.0 l/m 11.9 km/h (2 Bft) W-NW 0.00 h 126 W/m -1.6 C -0.5 C
01.02.2005 14:00 2.7 C 82 % 1024.9 hPa 0.3 l/m 0.6 km/h (0 Bft) W-NW 0.13 h 206 W/m -0.0 C 2.6 C
01.02.2005 15:00 3.0 C 79 % 1025.4 hPa 0.0 l/m 1.6 km/h (1 Bft) W-NW 0.60 h 194 W/m -0.2 C 2.6 C
01.02.2005 16:00 2.2 C 78 % 1026.1 hPa 0.0 l/m 7.4 km/h (2 Bft) W-NW 0.57 h 100 W/m -1.3 C 0.3 C
01.02.2005 17:00 1.5 C 79 % 1027.4 hPa 0.0 l/m 0.0 km/h (0 Bft) N 0.00 h 9 W/m -1.8 C 1.5 C
01.02.2005 18:00 0.6 C 85 % 1028.4 hPa 0.0 l/m 0.0 km/h (0 Bft) N 0.00 h 0 W/m -1.6 C 0.6 C
01.02.2005 19:00 0.2 C 88 % 1029.0 hPa 0.0 l/m 0.0 km/h (0 Bft) N 0.00 h 0 W/m -1.5 C 0.2 C
01.02.2005 20:00 -1.0 C 92 % 1029.9 hPa 0.0 l/m 0.0 km/h (0 Bft) N 0.00 h 0 W/m -2.1 C -1.0 C
01.02.2005 21:00 -2.0 C 94 % 1030.3 hPa 0.0 l/m 0.6 km/h (0 Bft) O-SO 0.00 h 0 W/m -2.9 C -2.2 C
01.02.2005 22:00 -2.6 C 96 % 1030.9 hPa 0.0 l/m 0.2 km/h (0 Bft) SO 0.00 h 0 W/m -3.2 C -2.6 C
01.02.2005 23:00 -1.9 C 96 % 1031.4 hPa 0.0 l/m 3.1 km/h (1 Bft) O-SO 0.00 h 0 W/m -2.5 C -3.0 C
02.02.2005 00:00 -1.8 C 97 % 1031.3 hPa 0.0 l/m 1.9 km/h (1 Bft) O 0.00 h 0 W/m -2.2 C -2.0 C
02.02.2005 01:00 -2.7 C 98 % 1031.5 hPa 0.0 l/m 2.8 km/h (1 Bft) SO 0.00 h 0 W/m -2.9 C -3.7 C
02.02.2005 02:00 -1.7 C 99 % 1031.7 hPa 0.0 l/m 3.6 km/h (1 Bft) SO 0.00 h 0 W/m -1.8 C -2.8 C
02.02.2005 03:00 -1.4 C 94 % 1032.2 hPa 0.0 l/m 2.7 km/h (1 Bft) SO 0.00 h 0 W/m -2.2 C -2.2 C
02.02.2005 04:00 -1.3 C 97 % 1031.3 hPa 0.0 l/m 3.1 km/h (1 Bft) SO 0.00 h 0 W/m -1.7 C -2.1 C
02.02.2005 05:00 -1.7 C 98 % 1031.3 hPa 0.0 l/m 5.4 km/h (1 Bft) SO 0.00 h 0 W/m -2.0 C -3.5 C
02.02.2005 06:00 -1.7 C 97 % 1031.3 hPa 0.0 l/m 8.4 km/h (2 Bft) SO 0.00 h 0 W/m -2.1 C -4.8 C
02.02.2005 07:00 -1.3 C 95 % 1032.2 hPa 0.0 l/m 4.0 km/h (1 Bft) O-SO 0.00 h 2 W/m -1.9 C -2.6 C
02.02.2005 08:00 -1.5 C 92 % 1032.3 hPa 0.0 l/m 5.0 km/h (1 Bft) SO 0.00 h 8 W/m -2.7 C -3.1 C
02.02.2005 09:00 -1.6 C 87 % 1032.4 hPa 0.0 l/m 8.0 km/h (2 Bft) SO 0.00 h 29 W/m -3.4 C -4.2 C
02.02.2005 10:00 -1.3 C 84 % 1032.4 hPa 0.0 l/m 4.8 km/h (1 Bft) SO 0.00 h 67 W/m -3.6 C -2.8 C
02.02.2005 11:00 -0.9 C 82 % 1032.5 hPa 0.3 l/m 6.2 km/h (2 Bft) SO 0.00 h 105 W/m -3.6 C -2.9 C
02.02.2005 12:00 -0.3 C 81 % 1032.2 hPa 0.0 l/m 2.9 km/h (1 Bft) SO 0.00 h 107 W/m -3.1 C -1.0 C
02.02.2005 13:00 -0.2 C 81 % 1032.1 hPa 0.0 l/m 2.3 km/h (1 Bft) SO 0.00 h 60 W/m -3.0 C -0.5 C
02.02.2005 14:00 0.2 C 79 % 1031.1 hPa 0.0 l/m 2.6 km/h (1 Bft) S 0.00 h 65 W/m -3.0 C -0.3 C
02.02.2005 15:00 1.0 C 73 % 1030.9 hPa 0.0 l/m 3.7 km/h (1 Bft) S-SO 0.00 h 107 W/m -3.2 C 0.1 C
02.02.2005 16:00 0.8 C 75 % 1031.0 hPa 0.0 l/m 3.6 km/h (1 Bft) SO 0.00 h 27 W/m -3.1 C -0.1 C
02.02.2005 17:00 0.5 C 83 % 1031.3 hPa 0.3 l/m 3.5 km/h (1 Bft) SO 0.00 h 4 W/m -2.1 C -0.3 C
02.02.2005 18:00 0.6 C 87 % 1032.0 hPa 0.0 l/m 2.5 km/h (1 Bft) O-SO 0.00 h 0 W/m -1.3 C -0.2 C
02.02.2005 19:00 0.6 C 87 % 1032.0 hPa 0.0 l/m 5.4 km/h (1 Bft) O-SO 0.00 h 0 W/m -1.2 C -1.0 C
02.02.2005 20:00 0.6 C 86 % 1032.0 hPa 0.0 l/m 5.0 km/h (1 Bft) O-SO 0.00 h 0 W/m -1.6 C -0.7 C
02.02.2005 21:00 0.8 C 85 % 1032.0 hPa 0.0 l/m 0.4 km/h (0 Bft) S-SO 0.00 h 0 W/m -1.4 C 0.8 C
02.02.2005 22:00 0.6 C 87 % 1032.0 hPa 0.0 l/m 2.2 km/h (1 Bft) SO 0.00 h 0 W/m -1.3 C 0.0 C
02.02.2005 23:00 0.6 C 89 % 1031.9 hPa 0.0 l/m 0.5 km/h (0 Bft) SO 0.00 h 0 W/m -1.0 C 0.5 C
03.02.2005 00:00 0.6 C 91 % 1032.0 hPa 0.0 l/m 3.2 km/h (1 Bft) SO 0.00 h 0 W/m -0.7 C -0.2 C
03.02.2005 01:00 0.6 C 92 % 1032.0 hPa 0.0 l/m 0.9 km/h (0 Bft) SO 0.00 h 0 W/m -0.6 C 0.4 C
03.02.2005 02:00 0.5 C 94 % 1032.0 hPa 0.0 l/m 1.8 km/h (1 Bft) SO 0.00 h 0 W/m -0.4 C 0.1 C
03.02.2005 03:00 0.5 C 95 % 1031.8 hPa 0.0 l/m 1.2 km/h (1 Bft) SO 0.00 h 0 W/m -0.2 C 0.2 C
03.02.2005 04:00 0.6 C 95 % 1031.1 hPa 0.0 l/m 3.8 km/h (1 Bft) SO 0.00 h 0 W/m -0.1 C -0.4 C
03.02.2005 05:00 0.7 C 94 % 1031.0 hPa 0.0 l/m 2.6 km/h (1 Bft) SO 0.00 h 0 W/m -0.2 C 0.1 C
03.02.2005 06:00 0.7 C 93 % 1031.6 hPa 0.0 l/m 3.1 km/h (1 Bft) O-SO 0.00 h 0 W/m -0.3 C -0.2 C
03.02.2005 07:00 0.6 C 95 % 1032.0 hPa 0.0 l/m 3.0 km/h (1 Bft) SO 0.00 h 4 W/m -0.1 C -0.1 C
03.02.2005 08:00 1.0 C 95 % 1032.0 hPa 0.0 l/m 6.4 km/h (2 Bft) SO 0.00 h 31 W/m 0.3 C -1.0 C
03.02.2005 09:00 1.9 C 90 % 1031.8 hPa 0.0 l/m 1.0 km/h (0 Bft) SO 0.00 h 98 W/m 0.5 C 1.7 C
03.02.2005 10:00 2.7 C 85 % 1031.7 hPa 0.0 l/m 1.8 km/h (1 Bft) SO 0.00 h 146 W/m 0.5 C 2.4 C
03.02.2005 11:00 3.4 C 80 % 1032.0 hPa 0.0 l/m 3.1 km/h (1 Bft) SO 0.10 h 180 W/m 0.3 C 2.7 C
03.02.2005 12:00 3.9 C 78 % 1031.8 hPa 0.0 l/m 0.0 km/h (0 Bft) N 0.00 h 167 W/m 0.3 C 3.9 C
03.02.2005 13:00 4.2 C 79 % 1031.5 hPa 0.0 l/m 0.3 km/h (0 Bft) W-NW 0.00 h 208 W/m 0.9 C 4.2 C
03.02.2005 14:00 4.1 C 79 % 1031.5 hPa 0.0 l/m 1.0 km/h (0 Bft) W-NW 0.00 h 142 W/m 0.7 C 3.9 C
03.02.2005 15:00 3.9 C 80 % 1031.5 hPa 0.0 l/m 0.0 km/h (0 Bft) N 0.00 h 95 W/m 0.8 C 3.9 C
03.02.2005 16:00 3.5 C 80 % 1031.6 hPa 0.0 l/m 0.0 km/h (0 Bft) N 0.00 h 43 W/m 0.5 C 3.5 C
03.02.2005 17:00 2.1 C 87 % 1031.8 hPa 0.0 l/m 0.0 km/h (0 Bft) N 0.03 h 14 W/m 0.1 C 2.1 C
03.02.2005 18:00 0.2 C 93 % 1032.9 hPa 0.0 l/m 0.0 km/h (0 Bft) N 0.00 h 0 W/m -0.8 C 0.2 C
03.02.2005 19:00 -0.5 C 96 % 1033.2 hPa 0.0 l/m 0.9 km/h (0 Bft) O 0.00 h 0 W/m -1.1 C -0.7 C
03.02.2005 20:00 -0.8 C 97 % 1033.3 hPa 0.0 l/m 0.1 km/h (0 Bft) O 0.00 h 0 W/m -1.2 C -0.8 C
03.02.2005 21:00 -0.6 C 98 % 1033.2 hPa 0.0 l/m 0.4 km/h (0 Bft) O 0.00 h 0 W/m -0.9 C -0.6 C
03.02.2005 22:00 -0.4 C 98 % 1033.2 hPa 0.0 l/m 0.0 km/h (0 Bft) N 0.00 h 0 W/m -0.7 C -0.4 C
03.02.2005 23:00 -1.0 C 99 % 1033.3 hPa 0.0 l/m 0.4 km/h (0 Bft) O 0.00 h 0 W/m -1.1 C -1.0 C
04.02.2005 00:00 -2.0 C 99 % 1033.0 hPa 0.0 l/m 1.1 km/h (0 Bft) O-SO 0.00 h 0 W/m -2.1 C -2.2 C
04.02.2005 01:00 -2.9 C 99 % 1032.5 hPa 0.0 l/m 0.2 km/h (0 Bft) O-SO 0.00 h 0 W/m -3.0 C -2.9 C
04.02.2005 02:00 -2.2 C 99 % 1032.4 hPa 0.0 l/m 0.0 km/h (0 Bft) N 0.00 h 0 W/m -2.3 C -2.2 C
04.02.2005 03:00 -3.3 C 99 % 1032.6 hPa 0.0 l/m 0.0 km/h (0 Bft) N 0.00 h 0 W/m -3.3 C -3.3 C
04.02.2005 04:00 -2.2 C 100 % 1032.4 hPa 0.0 l/m 0.0 km/h (0 Bft) N 0.00 h 0 W/m -2.3 C -2.2 C
04.02.2005 05:00 -2.2 C 100 % 1032.4 hPa 0.0 l/m 0.0 km/h (0 Bft) N 0.00 h 0 W/m -2.2 C -2.2 C
04.02.2005 06:00 -2.3 C 100 % 1032.5 hPa 0.0 l/m 0.1 km/h (0 Bft) N 0.00 h 0 W/m -2.2 C -2.3 C
04.02.2005 07:00 -2.1 C 100 % 1032.4 hPa 0.0 l/m 0.0 km/h (0 Bft) N 0.00 h 4 W/m -2.1 C -2.1 C
04.02.2005 08:00 -1.7 C 100 % 1032.4 hPa 0.0 l/m 0.0 km/h (0 Bft) N 0.00 h 25 W/m -1.7 C -1.7 C
04.02.2005 09:00 -0.8 C 100 % 1032.2 hPa 0.0 l/m 0.0 km/h (0 Bft) N 0.00 h 83 W/m -0.8 C -0.8 C
04.02.2005 10:00 0.3 C 100 % 1032.1 hPa 0.0 l/m 0.0 km/h (0 Bft) N 0.20 h 185 W/m 0.3 C 0.3 C
04.02.2005 11:00 1.7 C 97 % 1031.9 hPa 0.0 l/m 10.1 km/h (2 Bft) O-SO 0.13 h 214 W/m 1.3 C -1.0 C
04.02.2005 12:00 3.8 C 71 % 1031.4 hPa 0.0 l/m 5.9 km/h (2 Bft) O-SO 0.95 h 537 W/m -1.0 C 2.4 C
04.02.2005 13:00 5.2 C 62 % 1030.3 hPa 0.0 l/m 14.5 km/h (3 Bft) O-SO 1.00 h 551 W/m -1.5 C 2.3 C
04.02.2005 14:00 5.7 C 55 % 1030.2 hPa 0.0 l/m 5.4 km/h (1 Bft) NO 0.68 h 373 W/m -2.6 C 4.6 C
04.02.2005 15:00 4.4 C 59 % 1029.9 hPa 0.0 l/m 5.5 km/h (1 Bft) O-SO 0.47 h 189 W/m -2.9 C 3.3 C
04.02.2005 16:00 4.4 C 57 % 1029.5 hPa 0.0 l/m 8.7 km/h (2 Bft) O-SO 0.33 h 86 W/m -3.3 C 2.4 C
04.02.2005 17:00 3.0 C 64 % 1029.6 hPa 0.0 l/m 1.3 km/h (1 Bft) NO 0.00 h 9 W/m -3.1 C 2.8 C
04.02.2005 18:00 2.3 C 67 % 1029.7 hPa 0.0 l/m 1.7 km/h (1 Bft) O-NO 0.00 h 0 W/m -3.3 C 1.9 C
04.02.2005 19:00 1.4 C 70 % 1029.8 hPa 0.0 l/m 0.6 km/h (0 Bft) O-NO 0.00 h 0 W/m -3.5 C 1.2 C
04.02.2005 20:00 0.2 C 75 % 1030.0 hPa 0.0 l/m 1.1 km/h (1 Bft) NO 0.00 h 0 W/m -3.7 C -0.0 C
04.02.2005 21:00 -0.2 C 78 % 1030.1 hPa 0.0 l/m 2.7 km/h (1 Bft) O 0.00 h 0 W/m -3.5 C -0.9 C
04.02.2005 22:00 -0.6 C 79 % 1029.6 hPa 0.0 l/m 0.0 km/h (0 Bft) N 0.00 h 0 W/m -3.8 C -0.6 C
04.02.2005 23:00 -0.5 C 81 % 1029.1 hPa 0.0 l/m 0.0 km/h (0 Bft) N 0.00 h 0 W/m -3.4 C -0.5 C
05.02.2005 00:00 -0.4 C 81 % 1028.8 hPa 0.0 l/m 0.0 km/h (0 Bft) N 0.00 h 0 W/m -3.2 C -0.4 C
05.02.2005 01:00 -0.2 C 82 % 1028.0 hPa 0.0 l/m 0.0 km/h (0 Bft) N 0.00 h 0 W/m -2.9 C -0.2 C
05.02.2005 02:00 -0.3 C 81 % 1028.0 hPa 0.0 l/m 0.6 km/h (0 Bft) O-NO 0.00 h 0 W/m -3.1 C -0.5 C
05.02.2005 03:00 -0.4 C 80 % 1027.7 hPa 0.0 l/m 3.5 km/h (1 Bft) O-SO 0.00 h 0 W/m -3.5 C -1.5 C
05.02.2005 04:00 -0.5 C 78 % 1027.0 hPa 0.0 l/m 5.3 km/h (1 Bft) O-SO 0.00 h 0 W/m -3.9 C -1.9 C
05.02.2005 05:00 -0.8 C 81 % 1027.0 hPa 0.0 l/m 1.2 km/h (1 Bft) SO 0.00 h 0 W/m -3.6 C -1.0 C
05.02.2005 06:00 -1.2 C 84 % 1027.1 hPa 0.0 l/m 0.1 km/h (0 Bft) N 0.00 h 0 W/m -3.6 C -1.2 C
05.02.2005 07:00 -1.3 C 83 % 1027.1 hPa 0.0 l/m 0.1 km/h (0 Bft) N 0.00 h 4 W/m -3.9 C -1.3 C
05.02.2005 08:00 -1.4 C 82 % 1027.1 hPa 0.0 l/m 0.2 km/h (0 Bft) W-NW 0.00 h 15 W/m -4.1 C -1.4 C
05.02.2005 09:00 -1.5 C 81 % 1027.1 hPa 0.0 l/m 4.0 km/h (1 Bft) SO 0.00 h 41 W/m -4.3 C -2.7 C
05.02.2005 10:00 -1.3 C 80 % 1027.1 hPa 0.0 l/m 4.9 km/h (1 Bft) SO 0.00 h 63 W/m -4.4 C -2.8 C
05.02.2005 11:00 -0.9 C 78 % 1027.0 hPa 0.0 l/m 10.0 km/h (2 Bft) O-SO 0.00 h 98 W/m -4.2 C -4.2 C
05.02.2005 12:00 -0.1 C 75 % 1026.4 hPa 0.0 l/m 5.4 km/h (1 Bft) O-SO 0.00 h 127 W/m -4.0 C -1.8 C
05.02.2005 13:00 0.7 C 72 % 1025.8 hPa 0.0 l/m 1.9 km/h (1 Bft) O-SO 0.00 h 161 W/m -3.8 C 0.2 C
05.02.2005 14:00 1.2 C 71 % 1024.7 hPa 0.0 l/m 5.6 km/h (1 Bft) O-SO 0.00 h 143 W/m -3.5 C -0.5 C
05.02.2005 15:00 1.2 C 71 % 1024.7 hPa 0.0 l/m 6.7 km/h (2 Bft) O-SO 0.00 h 108 W/m -3.4 C -0.9 C
05.02.2005 16:00 0.9 C 72 % 1024.7 hPa 0.0 l/m 0.9 km/h (0 Bft) O-SO 0.00 h 54 W/m -3.7 C 0.7 C
05.02.2005 17:00 0.1 C 75 % 1024.8 hPa 0.0 l/m 1.2 km/h (1 Bft) O-SO 0.00 h 11 W/m -3.8 C -0.1 C
05.02.2005 18:00 -0.6 C 78 % 1024.9 hPa 0.0 l/m 0.2 km/h (0 Bft) O 0.00 h 0 W/m -4.0 C -0.6 C
05.02.2005 19:00 -0.7 C 79 % 1024.9 hPa 0.0 l/m 0.9 km/h (0 Bft) O-SO 0.00 h 0 W/m -3.8 C -0.9 C
05.02.2005 20:00 -0.8 C 80 % 1025.7 hPa 0.0 l/m 1.4 km/h (1 Bft) O-SO 0.00 h 0 W/m -3.9 C -1.2 C
05.02.2005 21:00 -0.9 C 81 % 1026.0 hPa 0.0 l/m 0.6 km/h (0 Bft) O-SO 0.00 h 0 W/m -3.7 C -1.1 C
05.02.2005 22:00 -1.0 C 82 % 1026.0 hPa 0.0 l/m 3.2 km/h (1 Bft) O-SO 0.00 h 0 W/m -3.6 C -1.7 C
05.02.2005 23:00 -1.0 C 82 % 1026.0 hPa 0.0 l/m 1.4 km/h (1 Bft) O-SO 0.00 h 0 W/m -3.7 C -1.3 C
06.02.2005 00:00 -0.9 C 84 % 1026.0 hPa 0.0 l/m 1.8 km/h (1 Bft) O-SO 0.00 h 0 W/m -3.3 C -1.3 C
06.02.2005 01:00 -1.1 C 85 % 1026.0 hPa 0.0 l/m 4.1 km/h (1 Bft) O-SO 0.00 h 0 W/m -3.2 C -2.4 C
06.02.2005 02:00 -1.9 C 85 % 1026.2 hPa 0.0 l/m 7.8 km/h (2 Bft) O-SO 0.00 h 0 W/m -4.0 C -4.6 C
06.02.2005 03:00 -3.2 C 90 % 1026.4 hPa 0.0 l/m 2.0 km/h (1 Bft) O-SO 0.00 h 0 W/m -4.7 C -3.7 C
06.02.2005 04:00 -3.3 C 93 % 1026.4 hPa 0.0 l/m 5.1 km/h (1 Bft) O-SO 0.00 h 0 W/m -4.2 C -5.1 C
06.02.2005 05:00 -2.7 C 96 % 1026.3 hPa 0.0 l/m 11.2 km/h (2 Bft) O-SO 0.00 h 0 W/m -3.3 C -6.8 C
06.02.2005 06:00 -2.5 C 94 % 1026.2 hPa 0.0 l/m 4.9 km/h (1 Bft) O-SO 0.00 h 0 W/m -3.3 C -4.1 C
06.02.2005 07:00 -2.2 C 91 % 1026.2 hPa 0.0 l/m 1.9 km/h (1 Bft) O-SO 0.00 h 5 W/m -3.5 C -2.7 C
06.02.2005 08:00 -2.2 C 89 % 1027.1 hPa 0.0 l/m 1.3 km/h (1 Bft) O-SO 0.00 h 16 W/m -3.8 C -2.5 C
06.02.2005 09:00 -2.1 C 85 % 1027.2 hPa 0.0 l/m 0.0 km/h (0 Bft) N 0.00 h 46 W/m -4.2 C -2.1 C
06.02.2005 10:00 -1.3 C 82 % 1027.1 hPa 0.0 l/m 1.3 km/h (1 Bft) O 0.00 h 136 W/m -4.0 C -1.5 C
06.02.2005 11:00 -0.7 C 78 % 1027.0 hPa 0.0 l/m 0.4 km/h (0 Bft) W-NW 0.43 h 301 W/m -4.0 C -0.8 C
06.02.2005 12:00 0.6 C 75 % 1026.1 hPa 0.0 l/m 3.2 km/h (1 Bft) W-NW 1.00 h 456 W/m -3.2 C -0.2 C
06.02.2005 13:00 2.6 C 66 % 1025.5 hPa 0.0 l/m 0.6 km/h (0 Bft) SO 1.00 h 443 W/m -3.1 C 2.5 C
06.02.2005 14:00 4.4 C 60 % 1024.8 hPa 0.0 l/m 2.0 km/h (1 Bft) SO 1.00 h 386 W/m -2.6 C 4.1 C
06.02.2005 15:00 4.6 C 61 % 1024.4 hPa 0.0 l/m 0.7 km/h (0 Bft) W 0.33 h 177 W/m -2.3 C 4.5 C
06.02.2005 16:00 4.3 C 61 % 1024.4 hPa 0.0 l/m 2.8 km/h (1 Bft) O-SO 0.00 h 61 W/m -2.4 C 3.7 C
06.02.2005 17:00 2.6 C 69 % 1025.5 hPa 0.0 l/m 5.3 km/h (1 Bft) O-SO 0.00 h 10 W/m -2.6 C 1.3 C
06.02.2005 18:00 1.8 C 73 % 1025.6 hPa 0.0 l/m 1.4 km/h (1 Bft) O-SO 0.00 h 0 W/m -2.5 C 1.5 C
06.02.2005 19:00 1.3 C 77 % 1025.7 hPa 0.0 l/m 0.0 km/h (0 Bft) N 0.00 h 0 W/m -2.3 C 1.3 C
06.02.2005 20:00 0.8 C 80 % 1025.7 hPa 0.0 l/m 0.0 km/h (0 Bft) N 0.00 h 0 W/m -2.3 C 0.8 C
06.02.2005 21:00 0.2 C 82 % 1025.8 hPa 0.0 l/m 0.0 km/h (0 Bft) N 0.00 h 0 W/m -2.4 C 0.2 C
06.02.2005 22:00 -0.8 C 88 % 1026.0 hPa 0.0 l/m 0.0 km/h (0 Bft) N 0.00 h 0 W/m -2.5 C -0.8 C
06.02.2005 23:00 -0.8 C 91 % 1026.0 hPa 0.0 l/m 0.0 km/h (0 Bft) N 0.00 h 0 W/m -2.0 C -0.8 C
Min-Datum _ 31.01.05 04.02.05 01.02.05 - 31.01.05 - - - 31.01.05 31.01.05
_ Min-Zeit 05:07 14:19 07:51 - 00:01 - - - 00:21 10:49
Minimum _ -5.5 C 53 % 1021.5 hPa - 0.0 km/h (0 Bft) - - - -11.9 C -9.1 C
Max-Datum _ 04.02.05 01.02.05 04.02.05 01.02.05 04.02.05 - 04.02.05 01.02.05 04.02.05 04.02.05
_ Max-Zeit 14:02 03:39 00:33 01:15 13:25 - 11:02 12:09 11:10 14:17
Maximum _ 6.7 C 100 % 1033.5 hPa 0.9 l/m 26.5 km/h
O-SO (4 Bft)
- 0.05 h 743 W/m 1.6 C 6.7 C
Durchschnitt _ -0.2 C 83 % 1029.0 hPa #4.8 l/m 2.5 km/h (1 Bft) O-SO #11:43 h 125 W/m -2.9 C -0.8 C

Durchschnitt Minimum Temp.-0.5 C
Durchschnitt Maximum Temp.0.2 C
© Kaiko 2005